sensor_id;sensor_type;location;lat;lon;timestamp;P1;durP1;ratioP1;P2;durP2;ratioP2
15094;SDS011;7648;52.264;9.632;2022-07-25T00:02:16;5.17;;;4.77;;
15094;SDS011;7648;52.264;9.632;2022-07-25T00:06:20;4.77;;;4.47;;
15094;SDS011;7648;52.264;9.632;2022-07-25T00:10:22;4.90;;;4.50;;
15094;SDS011;7648;52.264;9.632;2022-07-25T00:14:24;4.67;;;4.37;;
15094;SDS011;7648;52.264;9.632;2022-07-25T00:18:26;4.30;;;4.03;;
15094;SDS011;7648;52.264;9.632;2022-07-25T00:22:29;4.33;;;4.03;;
15094;SDS011;7648;52.264;9.632;2022-07-25T00:26:31;4.50;;;4.20;;
15094;SDS011;7648;52.264;9.632;2022-07-25T00:30:33;4.27;;;3.97;;
15094;SDS011;7648;52.264;9.632;2022-07-25T00:34:35;4.50;;;4.20;;
15094;SDS011;7648;52.264;9.632;2022-07-25T00:38:38;3.57;;;3.37;;
15094;SDS011;7648;52.264;9.632;2022-07-25T00:42:40;4.00;;;3.67;;
15094;SDS011;7648;52.264;9.632;2022-07-25T00:46:42;3.83;;;3.53;;
15094;SDS011;7648;52.264;9.632;2022-07-25T00:50:44;4.30;;;4.00;;
15094;SDS011;7648;52.264;9.632;2022-07-25T00:54:47;3.73;;;3.30;;
15094;SDS011;7648;52.264;9.632;2022-07-25T00:58:49;4.50;;;4.10;;
15094;SDS011;7648;52.264;9.632;2022-07-25T01:02:50;3.53;;;3.23;;
15094;SDS011;7648;52.264;9.632;2022-07-25T01:06:52;3.40;;;3.20;;
15094;SDS011;7648;52.264;9.632;2022-07-25T01:10:56;3.67;;;3.50;;
15094;SDS011;7648;52.264;9.632;2022-07-25T01:14:58;3.60;;;3.40;;
15094;SDS011;7648;52.264;9.632;2022-07-25T01:19:00;3.63;;;3.40;;
15094;SDS011;7648;52.264;9.632;2022-07-25T01:23:03;3.97;;;3.67;;
15094;SDS011;7648;52.264;9.632;2022-07-25T01:27:05;3.63;;;3.43;;
15094;SDS011;7648;52.264;9.632;2022-07-25T01:31:07;3.90;;;3.47;;
15094;SDS011;7648;52.264;9.632;2022-07-25T01:35:09;3.30;;;3.10;;
15094;SDS011;7648;52.264;9.632;2022-07-25T01:39:13;3.33;;;3.13;;
15094;SDS011;7648;52.264;9.632;2022-07-25T01:43:14;3.00;;;2.90;;
15094;SDS011;7648;52.264;9.632;2022-07-25T01:47:16;3.33;;;3.13;;
15094;SDS011;7648;52.264;9.632;2022-07-25T01:51:18;3.07;;;2.87;;
15094;SDS011;7648;52.264;9.632;2022-07-25T01:55:21;3.70;;;3.40;;
15094;SDS011;7648;52.264;9.632;2022-07-25T01:59:23;3.43;;;3.27;;
15094;SDS011;7648;52.264;9.632;2022-07-25T02:03:25;3.37;;;3.17;;
15094;SDS011;7648;52.264;9.632;2022-07-25T02:07:30;3.80;;;3.60;;
15094;SDS011;7648;52.264;9.632;2022-07-25T02:11:33;3.67;;;3.47;;
15094;SDS011;7648;52.264;9.632;2022-07-25T02:15:35;3.70;;;3.40;;
15094;SDS011;7648;52.264;9.632;2022-07-25T02:19:37;3.40;;;3.20;;
15094;SDS011;7648;52.264;9.632;2022-07-25T02:23:39;4.33;;;3.30;;
15094;SDS011;7648;52.264;9.632;2022-07-25T02:27:42;3.37;;;3.23;;
15094;SDS011;7648;52.264;9.632;2022-07-25T02:31:44;5.40;;;3.57;;
15094;SDS011;7648;52.264;9.632;2022-07-25T02:35:46;3.67;;;3.47;;
15094;SDS011;7648;52.264;9.632;2022-07-25T02:39:48;3.70;;;3.40;;
15094;SDS011;7648;52.264;9.632;2022-07-25T02:43:51;4.33;;;3.50;;
15094;SDS011;7648;52.264;9.632;2022-07-25T02:47:53;3.00;;;2.80;;
15094;SDS011;7648;52.264;9.632;2022-07-25T02:57:16;3.40;;;3.20;;
15094;SDS011;7648;52.264;9.632;2022-07-25T03:01:20;3.70;;;3.40;;
15094;SDS011;7648;52.264;9.632;2022-07-25T03:05:22;3.37;;;3.07;;
15094;SDS011;7648;52.264;9.632;2022-07-25T03:09:24;3.40;;;3.20;;
15094;SDS011;7648;52.264;9.632;2022-07-25T03:13:26;3.30;;;3.00;;
15094;SDS011;7648;52.264;9.632;2022-07-25T03:17:29;2.60;;;2.50;;
15094;SDS011;7648;52.264;9.632;2022-07-25T03:21:31;3.27;;;3.07;;
15094;SDS011;7648;52.264;9.632;2022-07-25T03:25:33;3.17;;;2.97;;
15094;SDS011;7648;52.264;9.632;2022-07-25T03:29:35;3.20;;;3.10;;
15094;SDS011;7648;52.264;9.632;2022-07-25T03:33:38;3.40;;;3.20;;
15094;SDS011;7648;52.264;9.632;2022-07-25T03:37:40;3.57;;;3.37;;
15094;SDS011;7648;52.264;9.632;2022-07-25T03:41:42;3.70;;;3.40;;
15094;SDS011;7648;52.264;9.632;2022-07-25T03:45:44;3.40;;;3.20;;
15094;SDS011;7648;52.264;9.632;2022-07-25T03:49:47;3.40;;;3.10;;
15094;SDS011;7648;52.264;9.632;2022-07-25T03:53:49;3.20;;;2.93;;
15094;SDS011;7648;52.264;9.632;2022-07-25T03:58:05;3.73;;;3.40;;
15094;SDS011;7648;52.264;9.632;2022-07-25T04:02:07;3.53;;;3.23;;
15094;SDS011;7648;52.264;9.632;2022-07-25T04:06:10;3.30;;;3.10;;
15094;SDS011;7648;52.264;9.632;2022-07-25T04:10:12;3.50;;;3.37;;
15094;SDS011;7648;52.264;9.632;2022-07-25T04:14:14;3.27;;;3.10;;
15094;SDS011;7648;52.264;9.632;2022-07-25T04:18:16;4.33;;;3.60;;
15094;SDS011;7648;52.264;9.632;2022-07-25T04:22:19;3.40;;;3.30;;
15094;SDS011;7648;52.264;9.632;2022-07-25T04:26:21;3.53;;;3.33;;
15094;SDS011;7648;52.264;9.632;2022-07-25T04:30:23;3.30;;;3.10;;
15094;SDS011;7648;52.264;9.632;2022-07-25T04:34:25;3.70;;;3.47;;
15094;SDS011;7648;52.264;9.632;2022-07-25T04:38:28;3.53;;;3.27;;
15094;SDS011;7648;52.264;9.632;2022-07-25T04:42:30;4.40;;;3.30;;
15094;SDS011;7648;52.264;9.632;2022-07-25T04:46:32;3.10;;;2.90;;
15094;SDS011;7648;52.264;9.632;2022-07-25T04:50:34;3.90;;;3.60;;
15094;SDS011;7648;52.264;9.632;2022-07-25T04:54:37;3.67;;;3.47;;
15094;SDS011;7648;52.264;9.632;2022-07-25T04:58:39;3.53;;;3.33;;
15094;SDS011;7648;52.264;9.632;2022-07-25T05:02:41;3.37;;;3.20;;
15094;SDS011;7648;52.264;9.632;2022-07-25T05:06:43;3.60;;;3.30;;
15094;SDS011;7648;52.264;9.632;2022-07-25T05:10:46;3.70;;;3.50;;
15094;SDS011;7648;52.264;9.632;2022-07-25T05:14:48;3.43;;;3.23;;
15094;SDS011;7648;52.264;9.632;2022-07-25T05:18:49;3.90;;;3.70;;
15094;SDS011;7648;52.264;9.632;2022-07-25T05:22:51;4.10;;;3.80;;
15094;SDS011;7648;52.264;9.632;2022-07-25T05:26:54;3.73;;;3.50;;
15094;SDS011;7648;52.264;9.632;2022-07-25T05:30:56;4.27;;;4.07;;
15094;SDS011;7648;52.264;9.632;2022-07-25T05:34:58;3.90;;;3.60;;
15094;SDS011;7648;52.264;9.632;2022-07-25T05:39:00;4.10;;;3.80;;
15094;SDS011;7648;52.264;9.632;2022-07-25T05:43:03;4.03;;;3.73;;
15094;SDS011;7648;52.264;9.632;2022-07-25T05:47:07;4.00;;;3.80;;
15094;SDS011;7648;52.264;9.632;2022-07-25T05:51:09;4.17;;;3.90;;
15094;SDS011;7648;52.264;9.632;2022-07-25T05:55:11;3.70;;;3.60;;
15094;SDS011;7648;52.264;9.632;2022-07-25T05:59:15;4.30;;;4.00;;
15094;SDS011;7648;52.264;9.632;2022-07-25T06:03:17;3.93;;;3.63;;
15094;SDS011;7648;52.264;9.632;2022-07-25T06:07:19;3.70;;;3.50;;
15094;SDS011;7648;52.264;9.632;2022-07-25T06:11:21;4.23;;;4.03;;
15094;SDS011;7648;52.264;9.632;2022-07-25T06:15:27;4.20;;;3.90;;
15094;SDS011;7648;52.264;9.632;2022-07-25T06:19:29;4.30;;;4.10;;
15094;SDS011;7648;52.264;9.632;2022-07-25T06:23:30;4.77;;;4.50;;
15094;SDS011;7648;52.264;9.632;2022-07-25T06:27:32;5.03;;;4.73;;
15094;SDS011;7648;52.264;9.632;2022-07-25T06:31:36;4.63;;;4.27;;
15094;SDS011;7648;52.264;9.632;2022-07-25T06:35:38;4.90;;;4.60;;
15094;SDS011;7648;52.264;9.632;2022-07-25T06:39:40;5.23;;;4.93;;
15094;SDS011;7648;52.264;9.632;2022-07-25T06:43:42;5.00;;;4.78;;
15094;SDS011;7648;52.264;9.632;2022-07-25T06:47:45;4.82;;;4.60;;
15094;SDS011;7648;52.264;9.632;2022-07-25T06:51:47;4.85;;;4.55;;
15094;SDS011;7648;52.264;9.632;2022-07-25T06:55:49;5.40;;;5.10;;
15094;SDS011;7648;52.264;9.632;2022-07-25T06:59:51;5.00;;;4.60;;
15094;SDS011;7648;52.264;9.632;2022-07-25T07:03:54;5.13;;;4.82;;
15094;SDS011;7648;52.264;9.632;2022-07-25T07:07:56;6.10;;;5.50;;
15094;SDS011;7648;52.264;9.632;2022-07-25T07:11:58;5.38;;;5.18;;
15094;SDS011;7648;52.264;9.632;2022-07-25T07:16:00;5.93;;;5.30;;
15094;SDS011;7648;52.264;9.632;2022-07-25T07:20:04;6.10;;;5.55;;
15094;SDS011;7648;52.264;9.632;2022-07-25T07:24:07;6.13;;;5.72;;
15094;SDS011;7648;52.264;9.632;2022-07-25T07:28:09;6.03;;;5.72;;
15094;SDS011;7648;52.264;9.632;2022-07-25T07:32:11;6.28;;;5.95;;
15094;SDS011;7648;52.264;9.632;2022-07-25T07:36:15;6.72;;;6.07;;
15094;SDS011;7648;52.264;9.632;2022-07-25T07:40:17;6.50;;;6.10;;
15094;SDS011;7648;52.264;9.632;2022-07-25T07:44:19;6.38;;;5.97;;
15094;SDS011;7648;52.264;9.632;2022-07-25T07:48:20;6.38;;;6.05;;
15094;SDS011;7648;52.264;9.632;2022-07-25T07:52:24;6.60;;;6.18;;
15094;SDS011;7648;52.264;9.632;2022-07-25T07:56:25;5.93;;;5.63;;
15094;SDS011;7648;52.264;9.632;2022-07-25T08:00:28;6.45;;;6.00;;
15094;SDS011;7648;52.264;9.632;2022-07-25T08:04:31;6.00;;;5.70;;
15094;SDS011;7648;52.264;9.632;2022-07-25T08:08:34;6.50;;;6.15;;
15094;SDS011;7648;52.264;9.632;2022-07-25T08:12:38;7.15;;;6.65;;
15094;SDS011;7648;52.264;9.632;2022-07-25T08:16:41;6.53;;;6.20;;
15094;SDS011;7648;52.264;9.632;2022-07-25T08:20:43;6.95;;;6.50;;
15094;SDS011;7648;52.264;9.632;2022-07-25T08:24:47;6.47;;;6.07;;
15094;SDS011;7648;52.264;9.632;2022-07-25T08:28:49;6.70;;;6.40;;
15094;SDS011;7648;52.264;9.632;2022-07-25T08:32:51;6.50;;;6.20;;
15094;SDS011;7648;52.264;9.632;2022-07-25T08:36:55;7.28;;;6.50;;
15094;SDS011;7648;52.264;9.632;2022-07-25T08:40:58;6.18;;;5.88;;
15094;SDS011;7648;52.264;9.632;2022-07-25T08:45:02;7.00;;;6.60;;
15094;SDS011;7648;52.264;9.632;2022-07-25T08:49:06;6.88;;;6.47;;
15094;SDS011;7648;52.264;9.632;2022-07-25T08:53:09;7.10;;;6.70;;
15094;SDS011;7648;52.264;9.632;2022-07-25T08:57:13;6.97;;;6.55;;
15094;SDS011;7648;52.264;9.632;2022-07-25T09:01:15;6.97;;;6.57;;
15094;SDS011;7648;52.264;9.632;2022-07-25T09:05:17;7.25;;;6.75;;
15094;SDS011;7648;52.264;9.632;2022-07-25T09:09:28;6.82;;;6.32;;
15094;SDS011;7648;52.264;9.632;2022-07-25T09:13:31;7.30;;;6.90;;
15094;SDS011;7648;52.264;9.632;2022-07-25T09:17:37;6.65;;;6.25;;
15094;SDS011;7648;52.264;9.632;2022-07-25T09:21:59;7.22;;;6.78;;
15094;SDS011;7648;52.264;9.632;2022-07-25T09:26:03;7.35;;;6.88;;
15094;SDS011;7648;52.264;9.632;2022-07-25T09:30:12;7.07;;;6.78;;
15094;SDS011;7648;52.264;9.632;2022-07-25T09:34:15;7.40;;;6.90;;
15094;SDS011;7648;52.264;9.632;2022-07-25T09:38:29;7.50;;;6.88;;
15094;SDS011;7648;52.264;9.632;2022-07-25T09:42:31;7.57;;;7.13;;
15094;SDS011;7648;52.264;9.632;2022-07-25T09:46:36;7.22;;;6.72;;
15094;SDS011;7648;52.264;9.632;2022-07-25T09:50:38;7.53;;;7.20;;
15094;SDS011;7648;52.264;9.632;2022-07-25T09:54:40;6.90;;;6.60;;
15094;SDS011;7648;52.264;9.632;2022-07-25T09:58:42;7.40;;;7.00;;
15094;SDS011;7648;52.264;9.632;2022-07-25T10:02:49;7.28;;;6.95;;
15094;SDS011;7648;52.264;9.632;2022-07-25T10:07:02;7.32;;;6.82;;
15094;SDS011;7648;52.264;9.632;2022-07-25T10:11:17;7.22;;;6.82;;
15094;SDS011;7648;52.264;9.632;2022-07-25T10:15:19;7.78;;;7.28;;
15094;SDS011;7648;52.264;9.632;2022-07-25T10:19:38;7.10;;;6.70;;
15094;SDS011;7648;52.264;9.632;2022-07-25T10:23:42;7.65;;;7.25;;
15094;SDS011;7648;52.264;9.632;2022-07-25T10:27:45;7.40;;;7.00;;
15094;SDS011;7648;52.264;9.632;2022-07-25T10:31:48;8.02;;;7.40;;
15094;SDS011;7648;52.264;9.632;2022-07-25T10:35:52;7.20;;;6.80;;
15094;SDS011;7648;52.264;9.632;2022-07-25T10:39:53;7.40;;;7.00;;
15094;SDS011;7648;52.264;9.632;2022-07-25T10:43:58;6.90;;;6.50;;
15094;SDS011;7648;52.264;9.632;2022-07-25T10:48:05;7.10;;;6.72;;
15094;SDS011;7648;52.264;9.632;2022-07-25T10:52:14;7.18;;;6.78;;
15094;SDS011;7648;52.264;9.632;2022-07-25T10:56:18;7.35;;;6.85;;
15094;SDS011;7648;52.264;9.632;2022-07-25T11:00:22;8.13;;;7.50;;
15094;SDS011;7648;52.264;9.632;2022-07-25T11:04:23;6.70;;;6.20;;
15094;SDS011;7648;52.264;9.632;2022-07-25T11:08:31;7.55;;;6.97;;
15094;SDS011;7648;52.264;9.632;2022-07-25T11:12:34;8.02;;;7.43;;
15094;SDS011;7648;52.264;9.632;2022-07-25T11:16:37;7.38;;;6.97;;
15094;SDS011;7648;52.264;9.632;2022-07-25T11:20:38;7.07;;;6.72;;
15094;SDS011;7648;52.264;9.632;2022-07-25T11:24:43;7.63;;;7.18;;
15094;SDS011;7648;52.264;9.632;2022-07-25T11:28:46;7.63;;;7.22;;
15094;SDS011;7648;52.264;9.632;2022-07-25T11:32:49;8.02;;;7.45;;
15094;SDS011;7648;52.264;9.632;2022-07-25T11:36:54;6.90;;;6.60;;
15094;SDS011;7648;52.264;9.632;2022-07-25T11:40:58;6.80;;;6.50;;
15094;SDS011;7648;52.264;9.632;2022-07-25T11:45:00;8.50;;;7.95;;
15094;SDS011;7648;52.264;9.632;2022-07-25T11:49:03;7.35;;;6.93;;
15094;SDS011;7648;52.264;9.632;2022-07-25T11:53:08;7.78;;;7.10;;
15094;SDS011;7648;52.264;9.632;2022-07-25T11:57:19;6.85;;;6.55;;
15094;SDS011;7648;52.264;9.632;2022-07-25T12:01:22;6.82;;;6.43;;
15094;SDS011;7648;52.264;9.632;2022-07-25T12:05:30;6.97;;;6.57;;
15094;SDS011;7648;52.264;9.632;2022-07-25T12:09:32;7.20;;;6.50;;
15094;SDS011;7648;52.264;9.632;2022-07-25T12:13:35;6.95;;;6.47;;
15094;SDS011;7648;52.264;9.632;2022-07-25T12:17:37;6.75;;;6.35;;
15094;SDS011;7648;52.264;9.632;2022-07-25T12:21:39;6.30;;;6.00;;
15094;SDS011;7648;52.264;9.632;2022-07-25T12:25:42;6.57;;;6.05;;
15094;SDS011;7648;52.264;9.632;2022-07-25T12:29:46;6.50;;;6.10;;
15094;SDS011;7648;52.264;9.632;2022-07-25T12:33:48;6.50;;;6.10;;
15094;SDS011;7648;52.264;9.632;2022-07-25T12:37:51;7.22;;;6.72;;
15094;SDS011;7648;52.264;9.632;2022-07-25T12:41:54;6.65;;;6.28;;
15094;SDS011;7648;52.264;9.632;2022-07-25T12:45:57;6.15;;;5.82;;
15094;SDS011;7648;52.264;9.632;2022-07-25T12:49:59;6.97;;;6.43;;
15094;SDS011;7648;52.264;9.632;2022-07-25T12:54:01;7.07;;;6.68;;
15094;SDS011;7648;52.264;9.632;2022-07-25T12:58:03;6.85;;;6.35;;
15094;SDS011;7648;52.264;9.632;2022-07-25T13:02:07;7.65;;;7.15;;
15094;SDS011;7648;52.264;9.632;2022-07-25T13:06:09;7.20;;;6.70;;
15094;SDS011;7648;52.264;9.632;2022-07-25T13:10:10;7.00;;;6.50;;
15094;SDS011;7648;52.264;9.632;2022-07-25T13:14:12;6.43;;;6.13;;
15094;SDS011;7648;52.264;9.632;2022-07-25T13:18:16;6.68;;;6.35;;
15094;SDS011;7648;52.264;9.632;2022-07-25T13:22:18;7.13;;;6.70;;
15094;SDS011;7648;52.264;9.632;2022-07-25T13:26:20;7.53;;;6.82;;
15094;SDS011;7648;52.264;9.632;2022-07-25T13:30:22;7.07;;;6.63;;
15094;SDS011;7648;52.264;9.632;2022-07-25T13:34:25;7.50;;;7.03;;
15094;SDS011;7648;52.264;9.632;2022-07-25T13:38:27;7.63;;;7.03;;
15094;SDS011;7648;52.264;9.632;2022-07-25T13:42:28;7.35;;;6.78;;
15094;SDS011;7648;52.264;9.632;2022-07-25T13:46:30;7.85;;;7.25;;
15094;SDS011;7648;52.264;9.632;2022-07-25T13:50:34;6.90;;;6.60;;
15094;SDS011;7648;52.264;9.632;2022-07-25T13:54:36;6.93;;;6.55;;
15094;SDS011;7648;52.264;9.632;2022-07-25T13:58:38;7.55;;;6.95;;
15094;SDS011;7648;52.264;9.632;2022-07-25T14:02:42;7.90;;;7.32;;
15094;SDS011;7648;52.264;9.632;2022-07-25T14:06:45;7.30;;;6.82;;
15094;SDS011;7648;52.264;9.632;2022-07-25T14:10:50;7.60;;;7.20;;
15094;SDS011;7648;52.264;9.632;2022-07-25T14:14:53;11.35;;;7.78;;
15094;SDS011;7648;52.264;9.632;2022-07-25T14:18:55;8.23;;;7.43;;
15094;SDS011;7648;52.264;9.632;2022-07-25T14:22:58;8.45;;;7.85;;
15094;SDS011;7648;52.264;9.632;2022-07-25T14:27:00;7.90;;;7.38;;
15094;SDS011;7648;52.264;9.632;2022-07-25T14:31:02;8.30;;;7.80;;
15094;SDS011;7648;52.264;9.632;2022-07-25T14:35:04;7.90;;;7.40;;
15094;SDS011;7648;52.264;9.632;2022-07-25T14:39:08;8.15;;;7.55;;
15094;SDS011;7648;52.264;9.632;2022-07-25T14:43:10;7.85;;;7.32;;
15094;SDS011;7648;52.264;9.632;2022-07-25T14:47:12;8.23;;;7.60;;
15094;SDS011;7648;52.264;9.632;2022-07-25T14:51:16;8.57;;;7.88;;
15094;SDS011;7648;52.264;9.632;2022-07-25T14:55:20;7.82;;;7.25;;
15094;SDS011;7648;52.264;9.632;2022-07-25T14:59:23;7.85;;;7.20;;
15094;SDS011;7648;52.264;9.632;2022-07-25T15:03:25;6.30;;;5.93;;
15094;SDS011;7648;52.264;9.632;2022-07-25T15:07:27;7.28;;;6.80;;
15094;SDS011;7648;52.264;9.632;2022-07-25T15:11:30;8.45;;;7.63;;
15094;SDS011;7648;52.264;9.632;2022-07-25T15:15:32;8.10;;;7.50;;
15094;SDS011;7648;52.264;9.632;2022-07-25T15:19:35;7.35;;;6.70;;
15094;SDS011;7648;52.264;9.632;2022-07-25T15:23:37;6.80;;;6.35;;
15094;SDS011;7648;52.264;9.632;2022-07-25T15:27:40;6.80;;;6.32;;
15094;SDS011;7648;52.264;9.632;2022-07-25T15:31:42;6.93;;;6.40;;
15094;SDS011;7648;52.264;9.632;2022-07-25T15:35:44;6.72;;;6.20;;
15094;SDS011;7648;52.264;9.632;2022-07-25T15:39:48;7.60;;;6.70;;
15094;SDS011;7648;52.264;9.632;2022-07-25T15:43:51;7.53;;;7.00;;
15094;SDS011;7648;52.264;9.632;2022-07-25T15:47:53;8.38;;;7.85;;
15094;SDS011;7648;52.264;9.632;2022-07-25T15:51:55;7.82;;;7.32;;
15094;SDS011;7648;52.264;9.632;2022-07-25T15:55:57;8.43;;;7.75;;
15094;SDS011;7648;52.264;9.632;2022-07-25T16:00:00;8.95;;;8.02;;
15094;SDS011;7648;52.264;9.632;2022-07-25T16:04:08;8.43;;;7.80;;
15094;SDS011;7648;52.264;9.632;2022-07-25T16:08:10;8.55;;;7.97;;
15094;SDS011;7648;52.264;9.632;2022-07-25T16:12:12;8.35;;;7.70;;
15094;SDS011;7648;52.264;9.632;2022-07-25T16:16:15;8.85;;;7.97;;
15094;SDS011;7648;52.264;9.632;2022-07-25T16:20:17;9.65;;;8.75;;
15094;SDS011;7648;52.264;9.632;2022-07-25T16:24:19;7.93;;;7.25;;
15094;SDS011;7648;52.264;9.632;2022-07-25T16:28:21;7.90;;;7.15;;
15094;SDS011;7648;52.264;9.632;2022-07-25T16:32:24;7.20;;;6.60;;
15094;SDS011;7648;52.264;9.632;2022-07-25T16:36:26;5.90;;;5.07;;
15094;SDS011;7648;52.264;9.632;2022-07-25T16:40:28;6.43;;;5.97;;
15094;SDS011;7648;52.264;9.632;2022-07-25T16:44:30;5.97;;;5.57;;
15094;SDS011;7648;52.264;9.632;2022-07-25T16:48:33;5.60;;;5.20;;
15094;SDS011;7648;52.264;9.632;2022-07-25T16:52:36;5.95;;;5.28;;
15094;SDS011;7648;52.264;9.632;2022-07-25T16:56:38;6.50;;;5.10;;
15094;SDS011;7648;52.264;9.632;2022-07-25T17:00:41;5.55;;;4.70;;
15094;SDS011;7648;52.264;9.632;2022-07-25T17:04:44;5.55;;;4.43;;
15094;SDS011;7648;52.264;9.632;2022-07-25T17:08:46;5.22;;;4.72;;
15094;SDS011;7648;52.264;9.632;2022-07-25T17:12:48;4.97;;;4.32;;
15094;SDS011;7648;52.264;9.632;2022-07-25T17:16:50;5.72;;;4.43;;
15094;SDS011;7648;52.264;9.632;2022-07-25T17:20:54;4.80;;;4.40;;
15094;SDS011;7648;52.264;9.632;2022-07-25T17:24:56;4.53;;;4.22;;
15094;SDS011;7648;52.264;9.632;2022-07-25T17:28:58;4.03;;;3.70;;
15094;SDS011;7648;52.264;9.632;2022-07-25T17:33:00;3.72;;;3.40;;
15094;SDS011;7648;52.264;9.632;2022-07-25T17:37:03;4.03;;;3.38;;
15094;SDS011;7648;52.264;9.632;2022-07-25T17:41:05;3.63;;;3.30;;
15094;SDS011;7648;52.264;9.632;2022-07-25T17:45:08;3.53;;;3.03;;
15094;SDS011;7648;52.264;9.632;2022-07-25T17:49:10;3.40;;;2.60;;
15094;SDS011;7648;52.264;9.632;2022-07-25T17:53:14;5.63;;;2.80;;
15094;SDS011;7648;52.264;9.632;2022-07-25T17:57:17;4.38;;;2.78;;
15094;SDS011;7648;52.264;9.632;2022-07-25T18:01:19;3.10;;;2.80;;
15094;SDS011;7648;52.264;9.632;2022-07-25T18:05:21;3.88;;;3.03;;
15094;SDS011;7648;52.264;9.632;2022-07-25T18:09:24;5.53;;;2.92;;
15094;SDS011;7648;52.264;9.632;2022-07-25T18:13:26;3.10;;;2.70;;
15094;SDS011;7648;52.264;9.632;2022-07-25T18:17:28;4.05;;;2.90;;
15094;SDS011;7648;52.264;9.632;2022-07-25T18:21:30;5.00;;;2.95;;
15094;SDS011;7648;52.264;9.632;2022-07-25T18:25:33;2.70;;;2.47;;
15094;SDS011;7648;52.264;9.632;2022-07-25T18:29:35;4.38;;;2.67;;
15094;SDS011;7648;52.264;9.632;2022-07-25T18:33:37;3.42;;;3.10;;
15094;SDS011;7648;52.264;9.632;2022-07-25T18:37:41;4.85;;;2.85;;
15094;SDS011;7648;52.264;9.632;2022-07-25T18:41:44;5.07;;;3.42;;
15094;SDS011;7648;52.264;9.632;2022-07-25T18:45:46;4.18;;;2.78;;
15094;SDS011;7648;52.264;9.632;2022-07-25T18:49:48;4.15;;;2.80;;
15094;SDS011;7648;52.264;9.632;2022-07-25T18:53:52;6.00;;;3.03;;
15094;SDS011;7648;52.264;9.632;2022-07-25T18:57:55;3.70;;;2.60;;
15094;SDS011;7648;52.264;9.632;2022-07-25T19:01:57;3.25;;;2.65;;
15094;SDS011;7648;52.264;9.632;2022-07-25T19:05:59;4.25;;;2.90;;
15094;SDS011;7648;52.264;9.632;2022-07-25T19:10:02;3.55;;;2.60;;
15094;SDS011;7648;52.264;9.632;2022-07-25T19:14:05;4.90;;;3.10;;
15094;SDS011;7648;52.264;9.632;2022-07-25T19:18:07;3.38;;;2.70;;
15094;SDS011;7648;52.264;9.632;2022-07-25T19:22:09;3.50;;;2.90;;
15094;SDS011;7648;52.264;9.632;2022-07-25T19:26:11;3.13;;;2.35;;
15094;SDS011;7648;52.264;9.632;2022-07-25T19:30:14;3.90;;;3.20;;
15094;SDS011;7648;52.264;9.632;2022-07-25T19:34:17;4.55;;;2.72;;
15094;SDS011;7648;52.264;9.632;2022-07-25T19:38:19;4.05;;;2.92;;
15094;SDS011;7648;52.264;9.632;2022-07-25T19:42:21;2.75;;;2.55;;
15094;SDS011;7648;52.264;9.632;2022-07-25T19:46:24;5.22;;;2.92;;
15094;SDS011;7648;52.264;9.632;2022-07-25T19:50:30;2.70;;;1.92;;
15094;SDS011;7648;52.264;9.632;2022-07-25T19:54:31;3.45;;;2.67;;
15094;SDS011;7648;52.264;9.632;2022-07-25T19:58:34;3.97;;;2.92;;
15094;SDS011;7648;52.264;9.632;2022-07-25T20:02:37;4.55;;;2.63;;
15094;SDS011;7648;52.264;9.632;2022-07-25T20:06:39;4.72;;;2.53;;
15094;SDS011;7648;52.264;9.632;2022-07-25T20:10:41;2.92;;;2.72;;
15094;SDS011;7648;52.264;9.632;2022-07-25T20:14:43;3.72;;;3.05;;
15094;SDS011;7648;52.264;9.632;2022-07-25T20:18:46;4.80;;;2.60;;
15094;SDS011;7648;52.264;9.632;2022-07-25T20:22:48;4.00;;;2.80;;
15094;SDS011;7648;52.264;9.632;2022-07-25T20:26:50;3.65;;;2.40;;
15094;SDS011;7648;52.264;9.632;2022-07-25T20:30:52;4.53;;;2.53;;
15094;SDS011;7648;52.264;9.632;2022-07-25T20:34:56;2.97;;;2.67;;
15094;SDS011;7648;52.264;9.632;2022-07-25T20:38:58;3.17;;;2.97;;
15094;SDS011;7648;52.264;9.632;2022-07-25T20:43:00;3.23;;;2.80;;
15094;SDS011;7648;52.264;9.632;2022-07-25T20:47:03;3.20;;;2.60;;
15094;SDS011;7648;52.264;9.632;2022-07-25T20:51:06;2.67;;;2.47;;
15094;SDS011;7648;52.264;9.632;2022-07-25T20:55:08;2.83;;;2.63;;
15094;SDS011;7648;52.264;9.632;2022-07-25T20:59:10;2.90;;;2.60;;
15094;SDS011;7648;52.264;9.632;2022-07-25T21:03:12;2.90;;;2.60;;
15094;SDS011;7648;52.264;9.632;2022-07-25T21:07:17;2.90;;;2.70;;
15094;SDS011;7648;52.264;9.632;2022-07-25T21:11:19;2.80;;;2.60;;
15094;SDS011;7648;52.264;9.632;2022-07-25T21:15:21;2.83;;;2.63;;
15094;SDS011;7648;52.264;9.632;2022-07-25T21:19:23;3.37;;;2.50;;
15094;SDS011;7648;52.264;9.632;2022-07-25T21:23:26;2.70;;;2.50;;
15094;SDS011;7648;52.264;9.632;2022-07-25T21:27:28;3.07;;;2.23;;
15094;SDS011;7648;52.264;9.632;2022-07-25T21:31:30;2.70;;;2.30;;
15094;SDS011;7648;52.264;9.632;2022-07-25T21:35:32;3.53;;;2.60;;
15094;SDS011;7648;52.264;9.632;2022-07-25T21:39:36;6.03;;;3.27;;
15094;SDS011;7648;52.264;9.632;2022-07-25T21:43:38;3.30;;;2.40;;
15094;SDS011;7648;52.264;9.632;2022-07-25T21:47:40;3.27;;;2.60;;
15094;SDS011;7648;52.264;9.632;2022-07-25T21:51:42;4.07;;;2.50;;
15094;SDS011;7648;52.264;9.632;2022-07-25T21:55:46;3.90;;;2.40;;
15094;SDS011;7648;52.264;9.632;2022-07-25T21:59:48;2.40;;;2.13;;
15094;SDS011;7648;52.264;9.632;2022-07-25T22:03:50;2.50;;;2.00;;
15094;SDS011;7648;52.264;9.632;2022-07-25T22:07:52;3.37;;;1.90;;
15094;SDS011;7648;52.264;9.632;2022-07-25T22:11:55;5.87;;;1.93;;
15094;SDS011;7648;52.264;9.632;2022-07-25T22:15:58;4.33;;;1.60;;
15094;SDS011;7648;52.264;9.632;2022-07-25T22:19:59;4.63;;;1.93;;
15094;SDS011;7648;52.264;9.632;2022-07-25T22:24:02;2.40;;;1.60;;
15094;SDS011;7648;52.264;9.632;2022-07-25T22:28:05;3.60;;;1.73;;
15094;SDS011;7648;52.264;9.632;2022-07-25T22:32:07;3.23;;;1.93;;
15094;SDS011;7648;52.264;9.632;2022-07-25T22:36:09;3.67;;;2.20;;
15094;SDS011;7648;52.264;9.632;2022-07-25T22:40:11;3.00;;;2.03;;
15094;SDS011;7648;52.264;9.632;2022-07-25T22:44:15;2.57;;;1.93;;
15094;SDS011;7648;52.264;9.632;2022-07-25T22:48:17;2.50;;;1.97;;
15094;SDS011;7648;52.264;9.632;2022-07-25T22:52:19;2.50;;;1.73;;
15094;SDS011;7648;52.264;9.632;2022-07-25T22:56:21;2.93;;;2.00;;
15094;SDS011;7648;52.264;9.632;2022-07-25T23:00:24;4.40;;;2.13;;
15094;SDS011;7648;52.264;9.632;2022-07-25T23:04:26;6.03;;;2.13;;
15094;SDS011;7648;52.264;9.632;2022-07-25T23:08:28;3.27;;;2.33;;
15094;SDS011;7648;52.264;9.632;2022-07-25T23:12:30;2.00;;;1.80;;
15094;SDS011;7648;52.264;9.632;2022-07-25T23:16:33;2.27;;;1.77;;
15094;SDS011;7648;52.264;9.632;2022-07-25T23:20:35;4.90;;;1.90;;
15094;SDS011;7648;52.264;9.632;2022-07-25T23:24:37;2.87;;;1.83;;
15094;SDS011;7648;52.264;9.632;2022-07-25T23:28:39;3.53;;;1.60;;
15094;SDS011;7648;52.264;9.632;2022-07-25T23:32:42;3.00;;;2.30;;
15094;SDS011;7648;52.264;9.632;2022-07-25T23:36:44;4.10;;;1.87;;
15094;SDS011;7648;52.264;9.632;2022-07-25T23:40:46;1.80;;;1.60;;
15094;SDS011;7648;52.264;9.632;2022-07-25T23:44:48;2.13;;;1.77;;
15094;SDS011;7648;52.264;9.632;2022-07-25T23:48:51;2.00;;;1.70;;
15094;SDS011;7648;52.264;9.632;2022-07-25T23:52:53;2.70;;;1.80;;
15094;SDS011;7648;52.264;9.632;2022-07-25T23:56:55;1.70;;;1.50;;
